createdAt,value
2022-12-24T00:02:08.921Z,100001.13
2022-12-24T00:05:10.834Z,99998.00
2022-12-24T00:08:12.267Z,99997.44
2022-12-24T00:11:14.167Z,99994.50
2022-12-24T00:14:15.601Z,99990.84
2022-12-24T00:17:17.119Z,99987.34
2022-12-24T00:20:19.641Z,99992.47
2022-12-24T00:23:21.308Z,100003.72
2022-12-24T00:26:22.795Z,100001.94
2022-12-24T00:29:24.291Z,99985.16
2022-12-24T00:32:25.725Z,99991.81
2022-12-24T00:35:27.121Z,100009.91
2022-12-24T00:38:28.499Z,100022.44
2022-12-24T00:41:30.915Z,100025.91
2022-12-24T00:44:32.306Z,100022.50
2022-12-24T00:47:33.713Z,100036.78
2022-12-24T00:50:35.135Z,100039.13
2022-12-24T00:53:36.534Z,100053.16
2022-12-24T00:56:37.937Z,100063.47
2022-12-24T00:59:39.302Z,100063.34
2022-12-24T01:02:40.913Z,100053.41
2022-12-24T01:05:42.403Z,100063.81
2022-12-24T01:08:44.130Z,100070.66
2022-12-24T01:11:46.239Z,100075.25
2022-12-24T01:14:47.787Z,100071.47
2022-12-24T01:17:49.202Z,100074.56
2022-12-24T01:20:59.448Z,100076.75
2022-12-24T01:24:00.846Z,100076.91
2022-12-24T01:27:02.236Z,100081.31
2022-12-24T01:30:05.974Z,100087.91
2022-12-24T01:33:07.402Z,100109.09
2022-12-24T01:36:09.218Z,100120.31
2022-12-24T01:39:10.602Z,100117.66
2022-12-24T01:42:40.442Z,100123.34
2022-12-24T01:45:54.523Z,100136.97
2022-12-24T01:48:59.389Z,100137.88
2022-12-24T01:52:09.121Z,100148.09
2022-12-24T01:55:16.765Z,100155.31
2022-12-24T01:58:21.023Z,100155.31
2022-12-24T02:01:22.889Z,100143.09
2022-12-24T02:04:50.858Z,100133.72
2022-12-24T02:07:52.769Z,100142.03
2022-12-24T02:10:54.184Z,100153.81
2022-12-24T02:14:00.085Z,100160.41
2022-12-24T02:17:31.713Z,100161.91
2022-12-24T02:20:56.795Z,100167.31
2022-12-24T02:24:33.871Z,100156.69
2022-12-24T02:27:38.544Z,100153.34
2022-12-24T02:30:50.917Z,100159.47
2022-12-24T02:34:06.276Z,100154.19
2022-12-24T02:37:15.951Z,100151.84
2022-12-24T02:40:27.427Z,100156.59
2022-12-24T02:43:37.152Z,100162.06
2022-12-24T02:46:38.617Z,100162.09
2022-12-24T02:49:44.295Z,100163.88
2022-12-24T02:52:47.088Z,100165.59
2022-12-24T02:56:05.830Z,100165.22
2022-12-24T02:59:28.905Z,100167.19
2022-12-24T03:02:47.997Z,100163.69
2022-12-24T03:05:59.987Z,100153.34
2022-12-24T03:09:14.724Z,100159.22
2022-12-24T03:12:22.571Z,100182.13
2022-12-24T03:15:25.634Z,100171.13
2022-12-24T03:18:28.920Z,100171.22
2022-12-24T03:21:36.370Z,100173.63
2022-12-24T03:24:38.265Z,100181.69
2022-12-24T03:27:40.649Z,100174.69
2022-12-24T03:30:43.720Z,100175.00
2022-12-24T03:33:45.650Z,100196.25
2022-12-24T03:36:48.253Z,100203.25
2022-12-24T03:39:49.745Z,100202.19
2022-12-24T03:42:51.179Z,100189.97
2022-12-24T03:45:52.599Z,100187.28
2022-12-24T03:48:54.555Z,100187.66
2022-12-24T03:51:56.105Z,100184.34
2022-12-24T03:54:57.555Z,100191.34
2022-12-24T03:57:58.964Z,100183.28
2022-12-24T04:01:00.417Z,100183.72
2022-12-24T04:04:01.821Z,100206.66
2022-12-24T04:07:04.288Z,100199.78
2022-12-24T04:10:06.164Z,100211.25
2022-12-24T04:13:07.554Z,100216.75
2022-12-24T04:16:14.684Z,100237.63
2022-12-24T04:19:16.100Z,100220.88
2022-12-24T04:22:18.001Z,100233.25
2022-12-24T04:25:19.400Z,100235.78
2022-12-24T04:28:20.895Z,100233.97
2022-12-24T04:31:22.432Z,100236.47
2022-12-24T04:34:23.923Z,100248.75
2022-12-24T04:37:25.383Z,100241.88
2022-12-24T04:40:26.779Z,100254.91
2022-12-24T04:43:29.283Z,100258.44
2022-12-24T04:46:31.422Z,100261.78
2022-12-24T04:49:32.945Z,100254.25
2022-12-24T04:52:34.876Z,100251.72
2022-12-24T04:55:36.264Z,100263.31
2022-12-24T04:58:37.691Z,100260.88
2022-12-24T05:01:39.166Z,100259.13
2022-12-24T05:04:40.714Z,100248.78
2022-12-24T05:07:42.115Z,100257.56
2022-12-24T05:10:43.548Z,100255.91
2022-12-24T05:13:47.704Z,100242.78
2022-12-24T05:16:49.336Z,100243.56
2022-12-24T05:19:50.751Z,100249.00
2022-12-24T05:23:10.729Z,100254.28
2022-12-24T05:26:23.967Z,100245.88
2022-12-24T05:29:25.551Z,100254.94
2022-12-24T05:32:28.571Z,100261.72
2022-12-24T05:35:29.967Z,100267.06
2022-12-24T05:38:31.364Z,100260.09
2022-12-24T05:41:33.019Z,100259.16
2022-12-24T05:44:34.423Z,100261.53
2022-12-24T05:47:42.910Z,100268.72
2022-12-24T05:50:44.839Z,100274.94
2022-12-24T05:53:46.964Z,100270.69
2022-12-24T05:56:48.362Z,100279.53
2022-12-24T05:59:49.835Z,100288.94
2022-12-24T06:02:51.332Z,100291.03
2022-12-24T06:06:04.715Z,100287.69
2022-12-24T06:09:06.201Z,100287.81
2022-12-24T06:12:07.668Z,100297.31
2022-12-24T06:15:09.611Z,100299.06
2022-12-24T06:18:11.056Z,100302.72
2022-12-24T06:21:14.589Z,100308.22
2022-12-24T06:24:16.022Z,100320.47
2022-12-24T06:27:17.423Z,100323.16
2022-12-24T06:30:19.039Z,100319.53
2022-12-24T06:33:20.490Z,100317.84
2022-12-24T06:36:24.913Z,100337.97
2022-12-24T06:39:26.319Z,100330.91
2022-12-24T06:42:27.701Z,100321.75
2022-12-24T06:45:29.082Z,100320.78
2022-12-24T06:48:31.089Z,100319.75
2022-12-24T06:51:32.467Z,100322.34
2022-12-24T06:54:33.867Z,100316.94
2022-12-24T06:57:35.253Z,100324.06
2022-12-24T07:00:37.011Z,100328.31
2022-12-24T07:03:38.882Z,100327.22
2022-12-24T07:06:41.960Z,100337.84
2022-12-24T07:09:43.372Z,100344.09
2022-12-24T07:12:44.979Z,100356.38
2022-12-24T07:15:46.555Z,100359.47
2022-12-24T07:18:48.044Z,100369.31
2022-12-24T07:21:49.990Z,100365.66
2022-12-24T07:24:51.453Z,100363.06
2022-12-24T07:27:52.888Z,100368.41
2022-12-24T07:30:54.722Z,100378.13
2022-12-24T07:33:56.174Z,100377.94
2022-12-24T07:36:57.686Z,100386.16
2022-12-24T07:39:59.271Z,100385.31
2022-12-24T07:43:00.742Z,100391.38
2022-12-24T07:46:02.364Z,100380.06
2022-12-24T07:49:03.857Z,100394.81
2022-12-24T07:52:05.339Z,100397.63
2022-12-24T07:55:07.094Z,100395.06
2022-12-24T07:58:08.530Z,100397.63
2022-12-24T08:01:13.709Z,100400.34
2022-12-24T08:04:15.200Z,100395.03
2022-12-24T08:07:16.596Z,100402.13
2022-12-24T08:10:18.258Z,100395.06
2022-12-24T08:13:19.643Z,100397.81
2022-12-24T08:16:21.108Z,100415.38
2022-12-24T08:19:23.304Z,100420.56
2022-12-24T08:22:24.802Z,100427.41
2022-12-24T08:25:26.207Z,100436.97
2022-12-24T08:28:27.838Z,100432.47
2022-12-24T08:31:29.817Z,100436.84
2022-12-24T08:34:31.250Z,100442.41
2022-12-24T08:37:32.774Z,100434.50
2022-12-24T08:40:34.285Z,100428.84
2022-12-24T08:43:35.745Z,100424.59
2022-12-24T08:46:37.303Z,100429.50
2022-12-24T08:49:39.961Z,100429.41
2022-12-24T08:52:41.399Z,100431.66
2022-12-24T08:55:42.947Z,100429.06
2022-12-24T08:58:44.336Z,100423.75
2022-12-24T09:01:45.901Z,100435.78
2022-12-24T09:04:47.419Z,100436.50
2022-12-24T09:07:48.847Z,100443.38
2022-12-24T09:10:51.344Z,100447.47
2022-12-24T09:13:54.312Z,100445.28
2022-12-24T09:16:57.853Z,100447.19
2022-12-24T09:19:59.880Z,100453.75
2022-12-24T09:23:01.433Z,100461.69
2022-12-24T09:26:12.152Z,100451.03
2022-12-24T09:29:13.554Z,100458.34
2022-12-24T09:32:14.991Z,100473.38
2022-12-24T09:35:16.407Z,100470.34
2022-12-24T09:38:18.386Z,100479.44
2022-12-24T09:41:22.864Z,100478.69
2022-12-24T09:44:49.006Z,100481.44
2022-12-24T09:47:55.331Z,100481.81
2022-12-24T09:51:08.614Z,100495.66
2022-12-24T09:54:20.714Z,100499.03
2022-12-24T09:57:43.054Z,100501.16
2022-12-24T10:00:49.724Z,100502.38
2022-12-24T10:03:51.894Z,100498.63
2022-12-24T10:07:17.091Z,100501.56
2022-12-24T10:10:24.351Z,100488.75
2022-12-24T10:13:59.853Z,100490.22
2022-12-24T10:17:27.280Z,100486.91
2022-12-24T10:20:45.586Z,100501.28
2022-12-24T10:23:57.715Z,100504.72
2022-12-24T10:27:06.786Z,100519.25
2022-12-24T10:30:17.513Z,100525.28
2022-12-24T10:33:42.818Z,100530.38
2022-12-24T10:36:44.282Z,100539.19
2022-12-24T10:39:45.957Z,100538.78
2022-12-24T10:42:51.412Z,100530.56
2022-12-24T10:45:57.218Z,100533.63
2022-12-24T10:49:02.157Z,100523.59
2022-12-24T10:52:10.298Z,100527.97
2022-12-24T10:55:17.335Z,100524.94
2022-12-24T10:58:20.138Z,100519.38
2022-12-24T11:01:48.938Z,100522.78
2022-12-24T11:04:50.598Z,100523.56
2022-12-24T11:08:03.382Z,100522.91
2022-12-24T11:11:08.447Z,100520.00
2022-12-24T11:14:15.907Z,100537.31
2022-12-24T11:17:22.907Z,100529.41
2022-12-24T11:20:28.084Z,100518.06
2022-12-24T11:23:30.347Z,100522.38
2022-12-24T11:26:31.891Z,100527.09
2022-12-24T11:29:33.289Z,100521.34
2022-12-24T11:32:34.823Z,100513.97
2022-12-24T11:35:43.420Z,100520.25
2022-12-24T11:38:53.541Z,100505.41
2022-12-24T11:41:55.071Z,100508.53
2022-12-24T11:44:58.057Z,100509.78
2022-12-24T11:48:00.425Z,100503.63
2022-12-24T11:51:07.888Z,100494.25
2022-12-24T11:54:19.107Z,100496.94
2022-12-24T11:57:25.128Z,100486.41
2022-12-24T12:00:28.468Z,100493.09
2022-12-24T12:03:35.235Z,100498.66
2022-12-24T12:06:36.548Z,100502.91
2022-12-24T12:09:43.018Z,100508.31
2022-12-24T12:12:57.923Z,100490.06
2022-12-24T12:16:25.823Z,100496.34
2022-12-24T12:19:33.053Z,100485.00
2022-12-24T12:22:58.553Z,100496.34
2022-12-24T12:26:18.233Z,100501.28
2022-12-24T12:29:45.206Z,100495.63
2022-12-24T12:33:20.884Z,100515.81
2022-12-24T12:36:43.553Z,100517.41
2022-12-24T12:39:45.028Z,100513.03
2022-12-24T12:43:19.257Z,100511.19
2022-12-24T12:46:38.368Z,100510.13
2022-12-24T12:49:53.489Z,100518.13
2022-12-24T12:53:13.143Z,100519.91
2022-12-24T12:56:23.931Z,100520.03
2022-12-24T12:59:41.441Z,100504.97
2022-12-24T13:02:50.359Z,100517.53
2022-12-24T13:06:13.463Z,100513.94
2022-12-24T13:09:42.179Z,100520.28
2022-12-24T13:12:49.607Z,100525.78
2022-12-24T13:16:00.286Z,100529.97
2022-12-24T13:19:24.940Z,100538.81
2022-12-24T13:22:26.633Z,100521.22
2022-12-24T13:25:41.110Z,100535.59
2022-12-24T13:28:43.367Z,100537.56
2022-12-24T13:31:44.870Z,100531.63
2022-12-24T13:34:54.933Z,100538.25
2022-12-24T13:38:28.442Z,100549.44
2022-12-24T13:41:41.334Z,100543.81
2022-12-24T13:44:43.118Z,100547.41
2022-12-24T13:47:44.621Z,100554.09
2022-12-24T13:50:52.280Z,100552.50
2022-12-24T13:53:59.450Z,100552.09
2022-12-24T13:57:01.492Z,100544.00
2022-12-24T14:00:09.190Z,100546.03
2022-12-24T14:03:13.884Z,100534.63
2022-12-24T14:06:27.660Z,100537.22
2022-12-24T14:09:31.911Z,100530.53
2022-12-24T14:12:47.857Z,100531.38
2022-12-24T14:15:49.904Z,100532.97
2022-12-24T14:19:10.129Z,100532.72
2022-12-24T14:22:11.456Z,100536.88
2022-12-24T14:25:17.419Z,100542.34
2022-12-24T14:28:28.411Z,100541.47
2022-12-24T14:31:29.857Z,100538.16
2022-12-24T14:34:31.897Z,100532.88
2022-12-24T14:37:34.951Z,100525.94
2022-12-24T14:41:14.181Z,100531.94
2022-12-24T14:44:35.460Z,100523.38
2022-12-24T14:47:58.465Z,100537.78
2022-12-24T14:51:23.147Z,100539.06
2022-12-24T14:54:35.335Z,100550.59
2022-12-24T14:57:36.800Z,100551.56
2022-12-24T15:00:39.756Z,100549.72
2022-12-24T15:03:41.310Z,100553.19
2022-12-24T15:06:56.657Z,100550.75
2022-12-24T15:09:58.237Z,100551.53
2022-12-24T15:13:06.644Z,100563.00
2022-12-24T15:16:13.785Z,100562.22
2022-12-24T15:19:24.716Z,100562.22
2022-12-24T15:22:31.232Z,100567.63
2022-12-24T15:25:33.348Z,100566.13
2022-12-24T15:28:39.121Z,100564.50
2022-12-24T15:31:41.068Z,100569.88
2022-12-24T15:34:45.324Z,100570.91
2022-12-24T15:37:47.661Z,100573.75
2022-12-24T15:40:50.081Z,100566.03
2022-12-24T15:43:54.138Z,100573.25
2022-12-24T15:47:04.699Z,100586.56
2022-12-24T15:50:16.312Z,100593.00
2022-12-24T15:53:22.596Z,100590.56
2022-12-24T15:56:31.348Z,100591.06
2022-12-24T15:59:38.089Z,100601.81
2022-12-24T16:02:41.743Z,100605.69
2022-12-24T16:05:43.537Z,100610.19
2022-12-24T16:08:46.056Z,100612.75
2022-12-24T16:11:47.559Z,100617.09
2022-12-24T16:14:57.377Z,100610.91
2022-12-24T16:17:58.801Z,100619.75
2022-12-24T16:21:00.543Z,100617.34
2022-12-24T16:24:16.276Z,100615.56
2022-12-24T16:27:18.322Z,100614.59
2022-12-24T16:30:21.490Z,100622.50
2022-12-24T16:33:26.363Z,100611.03
2022-12-24T16:36:29.639Z,100610.16
2022-12-24T16:39:34.438Z,100600.47
2022-12-24T16:42:54.303Z,100610.16
2022-12-24T16:46:03.903Z,100611.13
2022-12-24T16:49:05.366Z,100613.25
2022-12-24T16:52:15.364Z,100629.25
2022-12-24T16:55:16.875Z,100633.88
2022-12-24T16:58:18.859Z,100639.31
2022-12-24T17:01:20.348Z,100634.03
2022-12-24T17:04:21.881Z,100635.84
2022-12-24T17:07:23.349Z,100644.66
2022-12-24T17:10:24.819Z,100637.63
2022-12-24T17:13:26.646Z,100634.22
2022-12-24T17:16:28.554Z,100634.22
2022-12-24T17:19:30.007Z,100625.47
2022-12-24T17:22:31.654Z,100619.41
2022-12-24T17:25:35.780Z,100632.66
2022-12-24T17:28:37.588Z,100637.97
2022-12-24T17:31:40.507Z,100645.13
2022-12-24T17:34:41.962Z,100646.88
2022-12-24T17:37:44.822Z,100648.69
2022-12-24T17:40:47.090Z,100655.81
2022-12-24T17:43:48.691Z,100665.47
2022-12-24T17:46:50.238Z,100666.41
2022-12-24T17:49:51.669Z,100667.28
2022-12-24T17:52:53.042Z,100662.88
2022-12-24T17:55:54.502Z,100659.38
2022-12-24T17:58:56.547Z,100648.78
2022-12-24T18:01:58.030Z,100648.00
2022-12-24T18:04:59.563Z,100641.88
2022-12-24T18:08:00.963Z,100640.22
2022-12-24T18:11:12.992Z,100643.69
2022-12-24T18:14:15.236Z,100643.59
2022-12-24T18:17:16.698Z,100643.59
2022-12-24T18:20:20.145Z,100647.06
2022-12-24T18:23:21.591Z,100650.56
2022-12-24T18:26:28.228Z,100653.22
2022-12-24T18:29:29.850Z,100656.59
2022-12-24T18:32:32.029Z,100657.50
2022-12-24T18:35:33.456Z,100657.31
2022-12-24T18:38:35.312Z,100655.53
2022-12-24T18:41:37.376Z,100660.00
2022-12-24T18:44:38.922Z,100662.69
2022-12-24T18:47:40.304Z,100656.50
2022-12-24T18:50:41.846Z,100653.94
2022-12-24T18:53:43.355Z,100648.69
2022-12-24T18:56:44.741Z,100646.94
2022-12-24T18:59:46.212Z,100639.88
2022-12-24T19:02:48.452Z,100638.97
2022-12-24T19:05:50.042Z,100645.16
2022-12-24T19:09:00.804Z,100645.13
2022-12-24T19:12:04.213Z,100646.00
2022-12-24T19:15:06.409Z,100664.41
2022-12-24T19:18:07.804Z,100665.31
2022-12-24T19:21:12.119Z,100668.81
2022-12-24T19:24:14.292Z,100676.69
2022-12-24T19:27:15.688Z,100680.25
2022-12-24T19:30:17.185Z,100683.69
2022-12-24T19:33:18.623Z,100687.25
2022-12-24T19:36:22.928Z,100697.81
2022-12-24T19:39:31.699Z,100694.22
2022-12-24T19:42:34.298Z,100706.50
2022-12-24T19:45:35.807Z,100704.75
2022-12-24T19:48:37.264Z,100697.63
2022-12-24T19:51:39.191Z,100695.06
2022-12-24T19:54:42.526Z,100694.16
2022-12-24T19:57:44.187Z,100692.34
2022-12-24T20:00:45.662Z,100693.28
2022-12-24T20:03:48.643Z,100696.06
2022-12-24T20:06:53.510Z,100694.28
2022-12-24T20:09:59.607Z,100703.09
2022-12-24T20:13:05.868Z,100710.03
2022-12-24T20:16:12.726Z,100707.47
2022-12-24T20:19:14.946Z,100703.16
2022-12-24T20:22:16.417Z,100697.84
2022-12-24T20:25:17.943Z,100700.50
2022-12-24T20:28:19.379Z,100710.97
2022-12-24T20:31:23.481Z,100711.78
2022-12-24T20:34:25.170Z,100713.50
2022-12-24T20:37:26.936Z,100715.16
2022-12-24T20:40:28.333Z,100715.06
2022-12-24T20:43:34.774Z,100726.41
2022-12-24T20:46:38.950Z,100723.88
2022-12-24T20:49:40.350Z,100729.16
2022-12-24T20:52:41.970Z,100735.31
2022-12-24T20:55:43.399Z,100737.97
2022-12-24T20:58:46.620Z,100739.72
2022-12-24T21:01:48.289Z,100737.03
2022-12-24T21:04:49.803Z,100746.72
2022-12-24T21:07:52.086Z,100743.25
2022-12-24T21:11:13.538Z,100742.50
2022-12-24T21:14:26.548Z,100739.88
2022-12-24T21:17:29.580Z,100734.53
2022-12-24T21:20:31.547Z,100734.44
2022-12-24T21:23:32.969Z,100723.91
2022-12-24T21:26:34.598Z,100714.97
2022-12-24T21:29:36.140Z,100708.06
2022-12-24T21:32:37.889Z,100722.16
2022-12-24T21:35:39.388Z,100711.72
2022-12-24T21:38:41.308Z,100697.38
2022-12-24T21:41:42.719Z,100702.75
2022-12-24T21:44:44.232Z,100699.31
2022-12-24T21:47:45.631Z,100702.94
2022-12-24T21:50:56.958Z,100698.69
2022-12-24T21:54:17.100Z,100695.09
2022-12-24T21:57:37.215Z,100702.13
2022-12-24T22:00:38.832Z,100704.78
2022-12-24T22:03:40.311Z,100702.28
2022-12-24T22:07:00.543Z,100697.16
2022-12-24T22:10:20.510Z,100692.78
2022-12-24T22:13:22.727Z,100689.38
2022-12-24T22:16:24.270Z,100681.44
2022-12-24T22:19:25.772Z,100684.91
2022-12-24T22:22:27.231Z,100682.38
2022-12-24T22:25:29.828Z,100685.88
2022-12-24T22:28:31.279Z,100689.34
2022-12-24T22:31:32.815Z,100696.31
2022-12-24T22:34:35.114Z,100687.44
2022-12-24T22:37:36.547Z,100678.69
2022-12-24T22:40:40.953Z,100681.38
2022-12-24T22:43:44.472Z,100693.69
2022-12-24T22:46:46.061Z,100690.09
2022-12-24T22:49:48.209Z,100689.25
2022-12-24T22:52:49.631Z,100689.25
2022-12-24T22:55:56.372Z,100692.78
2022-12-24T22:58:57.909Z,100699.88
2022-12-24T23:01:59.631Z,100698.88
2022-12-24T23:05:01.110Z,100700.72
2022-12-24T23:08:03.201Z,100697.25
2022-12-24T23:11:13.214Z,100693.69
2022-12-24T23:14:38.355Z,100690.28
2022-12-24T23:17:39.798Z,100686.75
2022-12-24T23:20:47.066Z,100684.97
2022-12-24T23:23:48.718Z,100678.91
2022-12-24T23:26:50.148Z,100685.13
2022-12-24T23:29:51.552Z,100681.59
2022-12-24T23:32:52.939Z,100685.13
2022-12-24T23:35:54.558Z,100677.13
2022-12-24T23:38:56.098Z,100662.22
2022-12-24T23:41:57.474Z,100662.31
2022-12-24T23:44:58.853Z,100675.53
2022-12-24T23:48:01.473Z,100682.59
2022-12-24T23:51:09.883Z,100679.03
2022-12-24T23:54:11.288Z,100681.72
2022-12-24T23:57:12.736Z,100681.72
